Time;durP1;ratioP1;P1;durP2;ratioP2;P2;SDS_P1;SDS_P2;PMS_P1;PMS_P2;Temp;Humidity;BMP_temperature;BMP_pressure;BME280_temperature;BME280_humidity;BME280_pressure;Samples;Min_cycle;Max_cycle;Signal;HPM_P1;HPM_P2
2022/01/10 00:01:50;;;;;;;38.10;11.07;;;;;;;5.51;100.00;98328.22;5070557;28;20032;-79
2022/01/10 00:04:16;;;;;;;32.83;12.27;;;;;;;5.48;100.00;98320.75;5069848;28;20032;-79
2022/01/10 00:06:43;;;;;;;30.10;11.95;;;;;;;5.51;100.00;98338.63;5040917;28;20064;-80
2022/01/10 00:09:09;;;;;;;38.30;13.55;;;;;;;5.48;100.00;98335.56;5071252;28;20115;-79
2022/01/10 00:11:34;;;;;;;32.88;13.80;;;;;;;5.57;100.00;98337.91;5061959;28;20028;-80
2022/01/10 00:14:00;;;;;;;40.30;14.95;;;;;;;5.42;100.00;98337.91;5071529;28;20033;-80
2022/01/10 00:16:25;;;;;;;40.97;14.63;;;;;;;5.38;100.00;98356.66;5061320;28;20035;-81
2022/01/10 00:18:51;;;;;;;32.13;13.13;;;;;;;5.25;100.00;98360.66;5059676;28;20035;-80
2022/01/10 00:21:17;;;;;;;30.92;12.52;;;;;;;5.18;100.00;98358.94;5059832;28;20032;-80
2022/01/10 00:23:44;;;;;;;38.15;14.18;;;;;;;5.15;100.00;98370.53;5061604;28;20024;-80
2022/01/10 00:26:09;;;;;;;31.08;12.60;;;;;;;5.06;100.00;98361.16;5057062;28;20024;-82
2022/01/10 00:28:35;;;;;;;35.65;12.68;;;;;;;5.14;100.00;98369.72;5046174;28;20047;-80
2022/01/10 00:31:00;;;;;;;41.90;12.60;;;;;;;5.08;100.00;98360.00;5070376;28;20024;-81
2022/01/10 00:33:26;;;;;;;40.28;13.63;;;;;;;5.17;100.00;98384.16;5072422;28;20032;-80
2022/01/10 00:35:52;;;;;;;36.42;12.48;;;;;;;5.05;100.00;98383.78;5071244;28;20033;-80
2022/01/10 00:38:17;;;;;;;32.78;11.70;;;;;;;5.03;100.00;98392.72;5063102;28;20029;-80
2022/01/10 00:40:48;;;;;;;31.98;11.73;;;;;;;5.05;100.00;98395.97;5048498;28;20074;-80
2022/01/10 00:43:18;;;;;;;31.77;13.00;;;;;;;5.05;100.00;98393.34;5043245;28;20025;-80
2022/01/10 00:45:45;;;;;;;32.03;11.50;;;;;;;4.88;100.00;98401.28;5064090;28;20032;-80
2022/01/10 00:48:11;;;;;;;34.10;13.43;;;;;;;4.88;100.00;98414.28;5049867;28;20033;-80
2022/01/10 00:50:41;;;;;;;32.92;12.10;;;;;;;4.81;100.00;98413.38;5074608;28;20440;-78
2022/01/10 00:53:07;;;;;;;40.53;12.00;;;;;;;4.82;100.00;98412.38;5082581;28;20091;-81
2022/01/10 00:55:33;;;;;;;33.22;12.35;;;;;;;4.72;100.00;98404.81;5066760;28;20116;-80
2022/01/10 00:57:59;;;;;;;32.92;12.10;;;;;;;4.79;100.00;98417.94;5068010;28;20063;-79
2022/01/10 01:00:25;;;;;;;38.58;12.13;;;;;;;4.81;100.00;98418.56;5047697;28;20051;-79
2022/01/10 01:02:50;;;;;;;28.98;12.05;;;;;;;4.96;100.00;98424.66;5075279;28;20490;-80
2022/01/10 01:05:19;;;;;;;37.05;12.77;;;;;;;4.94;100.00;98412.78;5047288;28;20032;-80
2022/01/10 01:07:45;;;;;;;35.72;13.55;;;;;;;4.94;100.00;98402.38;5074647;28;20044;-80
2022/01/10 01:18:44;;;;;;;31.85;13.30;;;;;;;5.24;100.00;98437.13;5074121;28;20103;-79
2022/01/10 01:24:04;;;;;;;39.03;14.10;;;;;;;5.38;100.00;98437.34;5074003;28;20042;-80
2022/01/10 01:26:38;;;;;;;38.67;13.18;;;;;;;5.38;100.00;98432.94;5074708;28;20032;-80
2022/01/10 01:29:05;;;;;;;39.58;12.30;;;;;;;5.44;100.00;98447.03;5082705;28;20085;-79
2022/01/10 01:31:31;;;;;;;28.65;10.55;;;;;;;5.46;100.00;98452.88;5047122;28;20553;-80
2022/01/10 01:33:57;;;;;;;30.92;11.15;;;;;;;5.48;100.00;98450.09;5065886;28;20059;-80
2022/01/10 01:36:25;;;;;;;34.70;10.40;;;;;;;5.48;100.00;98461.31;5065305;28;20020;-80
2022/01/10 01:38:53;;;;;;;33.83;9.88;;;;;;;5.49;100.00;98449.91;5073361;28;20107;-80
2022/01/10 01:43:47;;;;;;;32.25;9.18;;;;;;;5.41;100.00;98456.03;5073939;28;20060;-80
2022/01/10 01:46:13;;;;;;;26.60;9.35;;;;;;;5.43;100.00;98468.84;5065694;28;20032;-80
2022/01/10 01:48:40;;;;;;;34.65;9.48;;;;;;;5.45;100.00;98476.50;5059301;28;20081;-80
2022/01/10 01:51:05;;;;;;;31.40;9.00;;;;;;;5.24;100.00;98457.94;5073447;28;20025;-80
2022/01/10 01:53:32;;;;;;;30.63;9.05;;;;;;;5.45;100.00;98487.69;5063253;28;20093;-80
2022/01/10 01:55:59;;;;;;;36.97;10.68;;;;;;;5.48;100.00;98494.38;5064351;28;20032;-80
2022/01/10 01:58:26;;;;;;;38.55;12.63;;;;;;;5.53;100.00;98492.03;5064162;28;20371;-80
2022/01/10 02:00:51;;;;;;;39.35;11.82;;;;;;;5.51;100.00;98499.22;5064323;28;20028;-81
2022/01/10 02:03:21;;;;;;;32.53;10.75;;;;;;;5.48;100.00;98497.75;5048584;28;20082;-80
2022/01/10 02:05:46;;;;;;;28.67;9.80;;;;;;;5.36;100.00;98501.78;5072347;28;20040;-80
2022/01/10 02:08:12;;;;;;;33.03;9.43;;;;;;;5.36;100.00;98501.78;5067815;28;20450;-80
2022/01/10 02:10:42;;;;;;;31.55;9.63;;;;;;;5.39;100.00;98507.41;5073203;28;20035;-80
2022/01/10 02:13:08;;;;;;;29.83;10.55;;;;;;;5.48;100.00;98520.38;5048717;28;20024;-79
2022/01/10 02:15:56;;;;;;;37.67;11.60;;;;;;;5.41;100.00;98520.28;5056592;28;20219;-79
2022/01/10 02:18:27;;;;;;;30.58;8.80;;;;;;;5.33;100.00;98521.13;5054951;28;20028;-80
2022/01/10 02:20:54;;;;;;;25.27;7.53;;;;;;;5.35;100.00;98534.00;5061393;28;20501;-79
2022/01/10 02:23:20;;;;;;;31.30;7.65;;;;;;;5.26;100.00;98528.81;5062440;28;20173;-80
2022/01/10 02:25:46;;;;;;;23.88;7.13;;;;;;;5.28;100.00;98539.88;5066025;28;20498;-79
2022/01/10 02:28:13;;;;;;;22.35;7.35;;;;;;;5.23;100.00;98544.00;5071986;28;20032;-81
2022/01/10 02:30:39;;;;;;;26.17;7.65;;;;;;;5.27;100.00;98533.03;5072533;28;20033;-79
2022/01/10 02:33:06;;;;;;;30.27;8.13;;;;;;;5.32;100.00;98537.72;5073285;28;20421;-78
2022/01/10 02:35:40;;;;;;;28.30;8.40;;;;;;;5.32;100.00;98542.16;5073048;28;20112;-78
2022/01/10 02:38:06;;;;;;;30.00;7.32;;;;;;;5.26;100.00;98533.22;5072771;28;20051;-80
2022/01/10 02:40:33;;;;;;;35.67;7.53;;;;;;;5.25;100.00;98532.41;5064366;28;20032;-79
2022/01/10 02:42:59;;;;;;;24.38;6.70;;;;;;;5.31;100.00;98558.75;5072995;28;20032;-79
2022/01/10 02:45:25;;;;;;;22.70;7.03;;;;;;;5.28;100.00;98542.47;5072203;28;20025;-79
2022/01/10 02:47:52;;;;;;;37.88;8.13;;;;;;;5.37;100.00;98555.44;5061822;28;20041;-80
2022/01/10 02:50:20;;;;;;;27.60;8.48;;;;;;;5.39;100.00;98553.47;5072754;28;20021;-80
2022/01/10 02:52:46;;;;;;;25.90;6.78;;;;;;;5.36;100.00;98553.81;5064264;28;20032;-80
2022/01/10 02:55:12;;;;;;;34.60;8.23;;;;;;;5.43;100.00;98559.94;5045858;28;20036;-79
2022/01/10 02:57:38;;;;;;;30.73;8.20;;;;;;;5.39;100.00;98556.06;5071131;28;20024;-80
2022/01/10 03:00:09;;;;;;;34.38;8.65;;;;;;;5.46;100.00;98575.22;5073554;28;20024;-81
2022/01/10 03:02:36;;;;;;;32.55;8.43;;;;;;;5.49;100.00;98564.44;5071440;28;20032;-80
2022/01/10 03:05:04;;;;;;;28.63;7.80;;;;;;;5.53;100.00;98570.13;5072261;28;20070;-80
2022/01/10 03:07:30;;;;;;;26.95;7.60;;;;;;;5.43;100.00;98558.16;5072340;28;20382;-80
2022/01/10 03:09:55;;;;;;;30.48;8.05;;;;;;;5.60;100.00;98583.28;5063862;28;20058;-80
2022/01/10 03:12:22;;;;;;;28.63;7.75;;;;;;;5.60;100.00;98580.66;5071828;28;20032;-80
2022/01/10 03:14:47;;;;;;;25.48;7.90;;;;;;;5.50;100.00;98571.31;5062457;28;20039;-80
2022/01/10 03:17:13;;;;;;;33.80;9.15;;;;;;;5.64;100.00;98576.72;5071845;28;20024;-80
2022/01/10 03:19:40;;;;;;;27.30;7.63;;;;;;;5.62;100.00;98589.13;5062145;28;20181;-79
2022/01/10 03:22:07;;;;;;;25.13;8.70;;;;;;;5.67;100.00;98605.03;5072293;28;20053;-80
2022/01/10 03:24:33;;;;;;;34.78;8.38;;;;;;;5.68;100.00;98611.84;5063147;28;20028;-80
2022/01/10 03:26:59;;;;;;;30.20;8.65;;;;;;;5.58;100.00;98594.66;5040383;28;20428;-80
2022/01/10 03:29:25;;;;;;;36.33;8.98;;;;;;;5.70;100.00;98618.50;5072065;28;20028;-79
2022/01/10 03:31:51;;;;;;;24.15;7.57;;;;;;;5.70;100.00;98618.50;5071434;28;20028;-80
2022/01/10 03:34:18;;;;;;;28.17;7.43;;;;;;;5.76;100.00;98627.44;5072214;28;20440;-79
2022/01/10 03:36:47;;;;;;;26.13;7.95;;;;;;;5.85;100.00;98626.38;5072728;28;20111;-79
2022/01/10 03:39:14;;;;;;;35.67;7.75;;;;;;;5.86;100.00;98614.97;5046774;28;20025;-79
2022/01/10 03:41:40;;;;;;;28.30;8.93;;;;;;;5.86;100.00;98614.19;5072070;28;20024;-79
2022/01/10 03:44:07;;;;;;;28.10;8.48;;;;;;;5.82;100.00;98618.91;5064383;28;20028;-80
2022/01/10 03:46:34;;;;;;;29.02;8.13;;;;;;;5.90;100.00;98620.66;5061651;28;20074;-79
2022/01/10 03:49:07;;;;;;;31.83;8.85;;;;;;;5.90;100.00;98615.44;5071818;28;20690;-80
2022/01/10 03:51:33;;;;;;;30.33;9.55;;;;;;;5.96;100.00;98626.97;5070720;28;20524;-81
2022/01/10 03:53:58;;;;;;;38.35;10.75;;;;;;;6.05;100.00;98636.34;5063752;28;20024;-79
2022/01/10 03:56:27;;;;;;;37.03;9.00;;;;;;;6.15;100.00;98646.53;5062806;28;20078;-79
2022/01/10 03:58:52;;;;;;;33.90;9.05;;;;;;;6.08;100.00;98620.38;5058961;28;20120;-79
2022/01/10 04:01:18;;;;;;;29.85;8.73;;;;;;;6.12;100.00;98634.69;5071170;28;20540;-79
2022/01/10 04:03:44;;;;;;;28.60;8.40;;;;;;;6.11;100.00;98633.06;5060768;28;20127;-79
2022/01/10 04:06:10;;;;;;;29.98;9.50;;;;;;;6.14;100.00;98635.31;5070695;28;20111;-80
2022/01/10 04:08:36;;;;;;;27.92;9.27;;;;;;;6.16;100.00;98623.91;5042887;28;20044;-79
2022/01/10 04:11:02;;;;;;;31.38;7.75;;;;;;;6.19;100.00;98626.16;5042832;28;20037;-79
2022/01/10 04:13:28;;;;;;;35.05;9.50;;;;;;;6.23;100.00;98630.03;5024846;28;20037;-79
2022/01/10 04:15:54;;;;;;;24.60;7.18;;;;;;;6.19;100.00;98628.78;5027669;28;20142;-79
2022/01/10 04:18:20;;;;;;;21.10;6.70;;;;;;;6.29;100.00;98621.53;5043090;28;20025;-80
2022/01/10 04:20:46;;;;;;;31.85;6.32;;;;;;;6.33;100.00;98635.81;5044358;28;20067;-79
2022/01/10 04:23:16;;;;;;;22.00;6.00;;;;;;;6.37;100.00;98629.25;5023800;28;20072;-80
2022/01/10 04:25:43;;;;;;;25.15;5.43;;;;;;;6.42;100.00;98636.56;5040980;28;20043;-79
2022/01/10 04:28:09;;;;;;;30.25;6.22;;;;;;;6.44;100.00;98645.00;5039837;28;20025;-79
2022/01/10 04:30:36;;;;;;;30.73;5.97;;;;;;;6.46;100.00;98650.03;5041738;28;20061;-80
2022/01/10 04:33:02;;;;;;;25.02;6.35;;;;;;;6.45;100.00;98640.59;5037306;28;20044;-79
2022/01/10 04:35:29;;;;;;;29.15;6.00;;;;;;;6.50;100.00;98643.50;5039992;28;20053;-80
2022/01/10 04:37:55;;;;;;;28.40;5.03;;;;;;;6.59;100.00;98654.66;5022382;28;20116;-80
2022/01/10 04:40:22;;;;;;;27.67;5.82;;;;;;;6.57;100.00;98654.81;5038735;28;20120;-80
2022/01/10 04:42:47;;;;;;;30.58;6.55;;;;;;;6.61;100.00;98660.50;5044695;28;20028;-79
2022/01/10 04:45:13;;;;;;;29.48;5.75;;;;;;;6.60;100.00;98669.31;5044880;28;20074;-80
2022/01/10 04:47:39;;;;;;;22.63;5.30;;;;;;;6.65;100.00;98673.00;5041651;28;20036;-81
2022/01/10 04:52:33;;;;;;;20.95;4.80;;;;;;;6.55;100.00;98667.22;5041120;28;20119;-81
2022/01/10 04:55:00;;;;;;;25.70;5.00;;;;;;;6.59;100.00;98678.13;5043011;28;20021;-81
2022/01/10 04:57:26;;;;;;;30.02;5.25;;;;;;;6.50;100.00;98680.00;5042315;28;20037;-79
2022/01/10 04:59:52;;;;;;;26.98;4.93;;;;;;;6.42;100.00;98679.06;5040623;28;20057;-80
2022/01/10 05:02:18;;;;;;;18.88;4.15;;;;;;;6.36;100.00;98685.00;5042772;28;20479;-81
2022/01/10 05:04:44;;;;;;;23.75;4.53;;;;;;;6.36;100.00;98698.03;5037961;28;20079;-80
2022/01/10 05:07:09;;;;;;;21.52;5.10;;;;;;;6.35;100.00;98699.00;5029684;28;20040;-81
2022/01/10 05:09:35;;;;;;;14.48;4.30;;;;;;;6.23;100.00;98693.41;5058022;28;20025;-80
2022/01/10 05:12:01;;;;;;;17.77;5.25;;;;;;;6.20;100.00;98700.75;5060281;28;20028;-80
2022/01/10 05:14:26;;;;;;;20.63;5.22;;;;;;;6.31;100.00;98716.00;5041811;28;20093;-79
2022/01/10 05:16:53;;;;;;;24.00;4.60;;;;;;;6.18;100.00;98703.53;5061496;28;20029;-80
2022/01/10 05:19:19;;;;;;;17.67;5.22;;;;;;;6.21;100.00;98708.41;5057627;28;20036;-81
2022/01/10 05:21:45;;;;;;;17.60;4.60;;;;;;;6.23;100.00;98727.28;5057267;28;20052;-79
2022/01/10 05:24:11;;;;;;;20.98;5.43;;;;;;;6.27;100.00;98733.78;5046668;28;20071;-81
2022/01/10 05:26:36;;;;;;;25.40;5.10;;;;;;;6.29;100.00;98746.63;5049420;28;20079;-80
2022/01/10 05:29:03;;;;;;;17.15;4.65;;;;;;;6.26;100.00;98750.41;5061514;28;20029;-79
2022/01/10 05:31:33;;;;;;;21.60;4.10;;;;;;;6.29;100.00;98751.84;5060670;28;20048;-79
2022/01/10 05:33:59;;;;;;;24.80;4.30;;;;;;;6.29;100.00;98751.84;5061557;28;20028;-81
2022/01/10 05:36:25;;;;;;;28.30;5.07;;;;;;;6.28;100.00;98739.78;5060297;28;20875;-81
2022/01/10 05:38:51;;;;;;;18.98;4.93;;;;;;;6.45;100.00;98761.34;5058350;28;20112;-78
2022/01/10 05:41:16;;;;;;;29.15;5.20;;;;;;;6.35;100.00;98761.56;5057797;28;20024;-80
2022/01/10 05:43:43;;;;;;;30.77;4.85;;;;;;;6.42;100.00;98772.91;5066924;28;20032;-78
2022/01/10 05:46:12;;;;;;;25.85;4.43;;;;;;;6.27;100.00;98759.00;5065948;28;20051;-79
2022/01/10 05:48:40;;;;;;;25.42;4.45;;;;;;;6.32;100.00;98758.50;5053900;28;20386;-79
2022/01/10 05:51:07;;;;;;;18.38;5.15;;;;;;;6.33;100.00;98768.75;5066124;28;20491;-78
2022/01/10 05:53:33;;;;;;;20.95;4.82;;;;;;;6.32;100.00;98785.38;5042001;28;20107;-80
2022/01/10 05:55:59;;;;;;;18.10;4.55;;;;;;;6.19;100.00;98764.28;5063631;28;20186;-79
2022/01/10 05:58:26;;;;;;;24.92;5.05;;;;;;;6.26;100.00;98793.88;5061017;28;20032;-82
2022/01/10 06:00:52;;;;;;;22.02;4.88;;;;;;;6.04;100.00;98770.22;5065281;28;20097;-82
2022/01/10 06:03:18;;;;;;;24.65;5.10;;;;;;;6.04;100.00;98777.25;5065488;28;20025;-81
2022/01/10 06:05:46;;;;;;;19.45;5.40;;;;;;;6.09;100.00;98790.56;5063066;28;20032;-81
2022/01/10 06:08:12;;;;;;;21.60;4.60;;;;;;;6.11;100.00;98796.41;5033187;28;20212;-81
2022/01/10 06:10:38;;;;;;;26.05;5.03;;;;;;;6.11;100.00;98807.66;5045224;28;20166;-82
2022/01/10 06:13:03;;;;;;;25.83;5.20;;;;;;;6.18;100.00;98823.41;5041677;28;20032;-79
2022/01/10 06:15:29;;;;;;;26.73;4.97;;;;;;;6.08;100.00;98815.00;5044022;28;20036;-81
2022/01/10 06:17:55;;;;;;;18.58;4.93;;;;;;;6.14;100.00;98833.38;5028027;28;20032;-78
2022/01/10 06:20:20;;;;;;;19.92;4.28;;;;;;;6.21;100.00;98837.91;5023780;28;20486;-82
2022/01/10 06:22:46;;;;;;;35.05;5.60;;;;;;;6.17;100.00;98831.41;5024610;28;20033;-81
2022/01/10 06:25:15;;;;;;;21.10;4.53;;;;;;;6.09;100.00;98814.84;5041261;28;20033;-80
2022/01/10 06:27:41;;;;;;;18.38;3.78;;;;;;;6.06;100.00;98820.38;5041887;28;20029;-82
2022/01/10 06:30:07;;;;;;;28.33;5.50;;;;;;;6.04;100.00;98811.13;5041509;28;20032;-81
2022/01/10 06:32:33;;;;;;;20.67;4.82;;;;;;;6.16;100.00;98817.56;5039711;28;20029;-81
2022/01/10 06:34:58;;;;;;;22.50;4.80;;;;;;;6.14;100.00;98825.56;5060857;28;20083;-80
2022/01/10 06:37:25;;;;;;;18.70;4.90;;;;;;;6.21;100.00;98843.13;5039807;28;20384;-81
2022/01/10 06:39:51;;;;;;;22.42;5.50;;;;;;;6.23;100.00;98844.56;5046115;28;20107;-82
2022/01/10 06:42:19;;;;;;;20.80;4.75;;;;;;;6.21;100.00;98843.94;5048698;28;20067;-81
2022/01/10 06:44:45;;;;;;;20.30;4.30;;;;;;;6.18;100.00;98853.88;5045117;28;20048;-81
2022/01/10 06:47:11;;;;;;;19.80;5.45;;;;;;;6.16;100.00;98837.59;5045149;28;20021;-79
2022/01/10 06:49:36;;;;;;;20.02;4.78;;;;;;;6.09;100.00;98829.66;5040305;28;20036;-79
2022/01/10 06:52:03;;;;;;;20.75;4.70;;;;;;;6.19;100.00;98842.47;5043669;28;20039;-79
2022/01/10 06:54:29;;;;;;;21.83;4.55;;;;;;;6.14;100.00;98833.38;5040857;28;20029;-79
2022/01/10 06:56:58;;;;;;;24.08;4.25;;;;;;;6.21;100.00;98840.50;5045716;28;20078;-81
2022/01/10 06:59:25;;;;;;;14.95;4.25;;;;;;;6.22;100.00;98858.59;5039510;28;20035;-80
2022/01/10 07:01:52;;;;;;;32.25;5.07;;;;;;;6.22;100.00;98862.97;5042031;28;20390;-80
2022/01/10 07:04:18;;;;;;;21.95;5.07;;;;;;;6.02;100.00;98852.97;5022852;28;20036;-81
2022/01/10 07:06:44;;;;;;;24.90;4.95;;;;;;;6.14;100.00;98858.63;5038907;28;20033;-80
2022/01/10 07:09:10;;;;;;;28.85;5.85;;;;;;;6.08;100.00;98861.91;5042044;28;20120;-80
2022/01/10 07:11:36;;;;;;;24.52;6.28;;;;;;;6.00;100.00;98847.91;5040418;28;20119;-80
2022/01/10 07:14:03;;;;;;;25.33;4.65;;;;;;;6.07;100.00;98863.69;5040276;28;20466;-80
2022/01/10 07:16:30;;;;;;;20.38;5.25;;;;;;;6.11;100.00;98879.81;5040870;28;20494;-80
2022/01/10 07:18:56;;;;;;;28.65;5.82;;;;;;;5.91;100.00;98858.53;5043490;28;20067;-80
2022/01/10 07:21:22;;;;;;;23.90;4.97;;;;;;;5.98;100.00;98875.09;5045997;28;20105;-81
2022/01/10 07:23:48;;;;;;;23.10;5.20;;;;;;;5.99;100.00;98900.19;5039456;28;20120;-80
2022/01/10 07:26:14;;;;;;;24.52;5.10;;;;;;;5.86;100.00;98888.47;5045248;28;20033;-81
2022/01/10 07:28:40;;;;;;;21.98;5.25;;;;;;;6.00;100.00;98915.66;5044026;28;20390;-81
2022/01/10 07:31:06;;;;;;;26.05;5.78;;;;;;;5.82;100.00;98896.81;5044075;28;20112;-82
2022/01/10 07:33:32;;;;;;;27.55;5.50;;;;;;;5.94;100.00;98902.47;5042292;28;20033;-80
2022/01/10 07:35:57;;;;;;;24.27;5.65;;;;;;;6.05;100.00;98930.00;5021787;28;20048;-81
2022/01/10 07:38:24;;;;;;;18.73;4.68;;;;;;;6.10;100.00;98930.31;5040118;28;20029;-82
2022/01/10 07:40:50;;;;;;;19.58;4.85;;;;;;;6.14;100.00;98922.00;5039840;28;20032;-79
2022/01/10 07:43:16;;;;;;;25.73;5.78;;;;;;;6.09;100.00;98919.09;5043234;28;20600;-80
2022/01/10 07:45:41;;;;;;;32.70;5.97;;;;;;;6.23;100.00;98925.38;5043774;28;20108;-79
2022/01/10 07:48:07;;;;;;;26.73;5.82;;;;;;;6.32;100.00;98931.38;5044166;28;20032;-80
2022/01/10 07:50:41;;;;;;;18.35;5.28;;;;;;;6.25;100.00;98922.59;5042228;28;20032;-79
2022/01/10 07:53:07;;;;;;;22.17;5.63;;;;;;;6.18;100.00;98914.63;5022415;28;20037;-80
2022/01/10 07:55:33;;;;;;;26.88;5.55;;;;;;;6.25;100.00;98917.38;5040517;28;20039;-77
2022/01/10 07:57:59;;;;;;;27.27;6.57;;;;;;;6.26;100.00;98926.81;5040667;28;20098;-78
2022/01/10 08:00:24;;;;;;;24.95;5.82;;;;;;;6.09;100.00;98949.53;5024609;28;20025;-79
2022/01/10 08:02:50;;;;;;;27.10;5.05;;;;;;;6.18;100.00;98926.84;5043502;28;20048;-77
2022/01/10 08:05:15;;;;;;;26.83;5.60;;;;;;;6.34;100.00;98942.44;5040713;28;20037;-78
2022/01/10 08:07:41;;;;;;;17.42;5.50;;;;;;;6.30;100.00;98946.38;5049456;28;20087;-78
2022/01/10 08:10:08;;;;;;;23.23;5.28;;;;;;;6.31;100.00;98950.59;5062352;28;20127;-77
2022/01/10 08:12:34;;;;;;;24.40;6.03;;;;;;;6.33;100.00;98953.84;5069505;28;20028;-78
2022/01/10 08:14:59;;;;;;;21.08;5.32;;;;;;;6.34;100.00;98958.09;5065427;28;20482;-78
2022/01/10 08:17:25;;;;;;;29.45;5.15;;;;;;;6.34;100.00;98952.88;5070596;28;20027;-78
2022/01/10 08:19:50;;;;;;;27.13;5.15;;;;;;;6.36;100.00;98955.28;5070883;28;20056;-80
2022/01/10 08:22:16;;;;;;;38.55;6.22;;;;;;;6.48;100.00;98973.97;5071046;28;20039;-79
2022/01/10 08:24:42;;;;;;;31.45;5.38;;;;;;;6.45;100.00;98974.31;5058236;28;20074;-78
2022/01/10 08:27:08;;;;;;;24.38;5.15;;;;;;;6.43;100.00;98970.09;5071191;28;20054;-78
2022/01/10 08:29:40;;;;;;;21.00;4.88;;;;;;;6.54;100.00;98988.97;5071175;28;20386;-78
2022/01/10 08:32:06;;;;;;;24.80;4.45;;;;;;;6.56;100.00;98992.22;5071518;28;20464;-78
2022/01/10 08:34:32;;;;;;;20.73;5.50;;;;;;;6.60;100.00;99003.13;5057442;28;20103;-79
2022/01/10 08:36:57;;;;;;;16.83;4.00;;;;;;;6.64;100.00;99002.59;5070940;28;20120;-78
2022/01/10 08:39:23;;;;;;;22.02;4.53;;;;;;;6.65;100.00;98996.41;5070462;28;20111;-78
2022/01/10 08:41:50;;;;;;;23.92;5.70;;;;;;;6.64;100.00;98981.75;5070904;28;20024;-79
2022/01/10 08:44:17;;;;;;;30.17;4.97;;;;;;;6.77;100.00;99007.25;5068402;28;20047;-78
2022/01/10 08:46:45;;;;;;;25.27;4.47;;;;;;;6.80;100.00;98999.13;5058469;28;20052;-79
2022/01/10 08:49:12;;;;;;;29.80;6.03;;;;;;;6.81;100.00;99000.75;5062988;28;20090;-79
2022/01/10 08:51:39;;;;;;;25.85;5.78;;;;;;;6.86;100.00;99002.81;5070994;28;20048;-78
2022/01/10 08:54:06;;;;;;;26.63;5.18;;;;;;;6.85;100.00;99015.06;5044086;28;20028;-80
2022/01/10 08:56:32;;;;;;;23.60;4.88;;;;;;;6.96;100.00;99020.88;5069267;28;20040;-79
2022/01/10 08:59:00;;;;;;;31.10;6.70;;;;;;;6.94;100.00;99022.84;5065100;28;20073;-80
2022/01/10 09:01:26;;;;;;;20.45;5.13;;;;;;;6.98;100.00;99030.16;5060564;28;20029;-81
2022/01/10 09:03:53;;;;;;;22.23;4.70;;;;;;;7.04;100.00;99020.03;5073931;28;20035;-80
2022/01/10 09:06:20;;;;;;;23.35;5.35;;;;;;;7.07;100.00;99019.66;5046943;28;20032;-80
2022/01/10 09:08:48;;;;;;;22.05;4.60;;;;;;;7.12;100.00;99012.97;5074394;28;20072;-78
2022/01/10 09:11:17;;;;;;;21.20;4.90;;;;;;;7.10;100.00;99019.34;5077054;28;20032;-78
2022/01/10 09:13:43;;;;;;;30.60;5.90;;;;;;;7.01;100.00;99008.16;5044581;28;20108;-80
2022/01/10 09:16:11;;;;;;;26.58;4.65;;;;;;;7.03;100.00;99006.19;5064966;28;20110;-79
2022/01/10 09:18:37;;;;;;;25.98;4.78;;;;;;;7.26;100.00;99031.50;5061710;28;20032;-78
2022/01/10 09:21:03;;;;;;;22.70;4.35;;;;;;;7.18;100.00;99016.69;5064044;28;20548;-77
2022/01/10 09:23:29;;;;;;;34.08;4.95;;;;;;;7.24;100.00;99023.81;5058111;28;20116;-79
2022/01/10 09:25:54;;;;;;;20.73;5.72;;;;;;;7.26;100.00;99029.66;5073094;28;20474;-77
2022/01/10 09:28:20;;;;;;;30.20;6.05;;;;;;;7.26;100.00;99032.28;5063656;28;20060;-77
2022/01/10 09:30:48;;;;;;;26.17;5.30;;;;;;;7.26;100.00;99021.84;5072178;28;20021;-77
2022/01/10 09:33:14;;;;;;;31.90;6.00;;;;;;;7.40;100.00;99032.53;5073393;28;20032;-76
2022/01/10 09:35:42;;;;;;;24.98;4.55;;;;;;;7.36;100.00;99039.09;5056969;28;20036;-78
2022/01/10 09:38:09;;;;;;;25.65;5.70;;;;;;;7.22;100.00;99025.78;5074116;28;20063;-79
2022/01/10 09:40:34;;;;;;;29.25;5.30;;;;;;;7.32;100.00;99038.63;5060863;28;20021;-80
2022/01/10 09:43:01;;;;;;;30.55;4.65;;;;;;;7.45;100.00;99042.47;5061859;28;20044;-76
2022/01/10 09:45:27;;;;;;;18.48;3.97;;;;;;;7.42;100.00;99048.84;5081759;28;20095;-80
2022/01/10 09:47:53;;;;;;;23.15;4.47;;;;;;;7.44;100.00;99046.84;5074175;28;20111;-81
2022/01/10 09:50:19;;;;;;;24.30;4.93;;;;;;;7.44;100.00;99065.13;5063100;28;20226;-80
2022/01/10 09:52:49;;;;;;;30.50;5.70;;;;;;;7.51;100.00;99046.97;5065313;28;20035;-81
2022/01/10 09:55:15;;;;;;;24.85;5.28;;;;;;;7.60;100.00;99064.25;5064773;28;20447;-80
2022/01/10 09:57:41;;;;;;;23.75;5.25;;;;;;;7.67;100.00;99072.19;5063507;28;20032;-81
2022/01/10 10:00:10;;;;;;;36.15;5.63;;;;;;;7.61;100.00;99067.66;5074034;28;20024;-80
2022/01/10 10:02:37;;;;;;;22.25;4.90;;;;;;;7.66;100.00;99060.09;5044923;28;20032;-80
2022/01/10 10:05:09;;;;;;;20.67;4.90;;;;;;;7.72;100.00;99077.69;5064126;28;20035;-81
2022/01/10 10:07:39;;;;;;;44.38;6.70;;;;;;;7.72;100.00;99069.88;5072743;28;20040;-80
2022/01/10 10:10:12;;;;;;;29.80;6.35;;;;;;;7.73;100.00;99081.94;5072300;28;20062;-80
2022/01/10 10:12:45;;;;;;;60.22;7.72;;;;;;;7.73;100.00;99076.72;5072935;28;20032;-81
2022/01/10 10:15:15;;;;;;;50.47;9.57;;;;;;;7.72;100.00;99081.09;5073167;28;20041;-81
2022/01/10 10:17:41;;;;;;;32.10;5.82;;;;;;;7.68;100.00;99077.22;5045525;28;20044;-81
2022/01/10 10:20:08;;;;;;;25.90;5.82;;;;;;;7.80;100.00;99090.69;5081915;28;20078;-79
2022/01/10 10:22:34;;;;;;;35.97;7.00;;;;;;;7.74;100.00;99080.13;5062753;28;20473;-80
2022/01/10 10:25:03;;;;;;;27.13;6.35;;;;;;;7.85;100.00;99085.75;5072530;28;20738;-79
2022/01/10 10:27:35;;;;;;;23.75;5.03;;;;;;;7.85;100.00;99090.19;5073334;28;20062;-79
2022/01/10 10:30:04;;;;;;;21.98;6.10;;;;;;;7.93;100.00;99092.72;5063451;28;20039;-79
2022/01/10 10:32:30;;;;;;;31.25;6.70;;;;;;;7.79;100.00;99088.28;5059348;28;20033;-80
2022/01/10 10:34:57;;;;;;;31.70;6.80;;;;;;;7.83;100.00;99100.78;5062130;28;20089;-80
2022/01/10 10:37:23;;;;;;;29.58;5.72;;;;;;;7.81;100.00;99097.53;5063047;28;20105;-79
2022/01/10 10:39:48;;;;;;;26.58;5.47;;;;;;;7.94;100.00;99104.00;5072951;28;20453;-79
2022/01/10 10:42:16;;;;;;;24.50;5.75;;;;;;;8.02;100.00;99097.88;5072960;28;20485;-80
2022/01/10 10:44:43;;;;;;;20.90;5.65;;;;;;;8.03;100.00;99099.50;5072002;28;20484;-79
2022/01/10 10:47:10;;;;;;;22.98;5.35;;;;;;;8.00;100.00;99103.28;5073234;28;20493;-79
2022/01/10 10:49:44;;;;;;;32.40;6.53;;;;;;;8.06;100.00;99107.81;5071436;28;20062;-79
2022/01/10 10:52:12;;;;;;;28.52;6.55;;;;;;;8.00;100.00;99098.06;5071834;28;20025;-80
2022/01/10 10:54:40;;;;;;;25.00;5.70;;;;;;;7.94;100.00;99115.25;5072759;28;20024;-80
2022/01/10 10:57:07;;;;;;;23.90;6.30;;;;;;;7.96;100.00;99108.06;5064335;28;20082;-79
2022/01/10 10:59:36;;;;;;;24.58;5.97;;;;;;;8.01;100.00;99115.34;5073858;28;20029;-84
2022/01/10 11:02:03;;;;;;;25.50;5.15;;;;;;;7.86;100.00;99110.09;5071479;28;20394;-82
2022/01/10 11:04:30;;;;;;;24.38;5.53;;;;;;;7.85;100.00;99111.88;5071839;28;20047;-79
2022/01/10 11:06:57;;;;;;;25.40;5.88;;;;;;;7.80;100.00;99108.97;5046130;28;20074;-79
2022/01/10 11:09:23;;;;;;;23.15;5.95;;;;;;;7.89;100.00;99111.56;5071251;28;20048;-79
2022/01/10 11:11:49;;;;;;;25.98;6.22;;;;;;;7.81;100.00;99108.00;5072036;28;20033;-81
2022/01/10 11:14:17;;;;;;;23.05;5.90;;;;;;;7.84;100.00;99115.47;5065883;28;20416;-79
2022/01/10 11:16:46;;;;;;;23.67;5.90;;;;;;;7.93;100.00;99118.06;5072205;28;20028;-80
2022/01/10 11:19:21;;;;;;;22.25;5.93;;;;;;;7.95;100.00;99114.25;5071521;28;20428;-80
2022/01/10 11:21:54;;;;;;;20.63;5.63;;;;;;;7.96;100.00;99113.28;5059763;28;20145;-80
2022/01/10 11:24:52;;;;;;;31.30;5.72;;;;;;;7.99;100.00;99119.94;5060018;28;20028;-79
2022/01/10 11:27:35;;;;;;;22.13;6.22;;;;;;;7.98;100.00;99115.72;5063987;28;20028;-79
2022/01/10 11:30:22;;;;;;;27.52;6.65;;;;;;;7.82;100.00;99120.06;5072561;28;20044;-81
2022/01/10 11:33:01;;;;;;;21.98;6.90;;;;;;;7.90;100.00;99129.66;5070629;28;20029;-81
2022/01/10 11:35:32;;;;;;;22.95;7.47;;;;;;;7.93;100.00;99128.50;5061494;28;20056;-79
2022/01/10 11:37:58;;;;;;;28.45;6.85;;;;;;;7.72;100.00;99122.13;5057284;28;20036;-79
2022/01/10 11:40:24;;;;;;;26.95;7.43;;;;;;;7.76;100.00;99131.22;5072122;28;20032;-80